Terminal Aerodrome Forecast
Issued by NWS

Home | Current Version | Previous Version | Text Only | Print | Product List | Glossary On
Versions: 1 2 3 4 5 6 7 8 9 10 11 12 13 14 15 16 17 18 19 20 21 22 23
000
FTUS41 KCTP 112358 RRA
TAFUNV
TAF
KUNV 112358Z 1200/1224 00000KT P6SM OVC080
     FM120800 18005KT P6SM OVC030
     FM121100 18005KT 4SM -SN OVC018
     FM121400 25011G18KT 2SM BR OVC025 PROB30 1214/1215 2SM -SN
      OVC025
     FM121700 25014G21KT P6SM OVC050=

USA.gov is the U.S. government's official web portal to all federal, state and local government web resources and services.